sensor_id;sensor_type;location;lat;lon;timestamp;P1;durP1;ratioP1;P2;durP2;ratioP2
69841;SDS011;57138;51.326;-0.068;2023-04-24T00:02:02;0.30;;;0.30;;
69841;SDS011;57138;51.326;-0.068;2023-04-24T00:04:28;0.10;;;0.10;;
69841;SDS011;57138;51.326;-0.068;2023-04-24T00:06:55;0.10;;;0.10;;
69841;SDS011;57138;51.326;-0.068;2023-04-24T00:09:22;0.10;;;0.10;;
69841;SDS011;57138;51.326;-0.068;2023-04-24T00:11:47;0.10;;;0.10;;
69841;SDS011;57138;51.326;-0.068;2023-04-24T00:14:13;0.50;;;0.50;;
69841;SDS011;57138;51.326;-0.068;2023-04-24T00:16:39;0.30;;;0.30;;
69841;SDS011;57138;51.326;-0.068;2023-04-24T00:19:04;0.40;;;0.40;;
69841;SDS011;57138;51.326;-0.068;2023-04-24T00:21:31;0.30;;;0.30;;
69841;SDS011;57138;51.326;-0.068;2023-04-24T00:23:57;0.10;;;0.10;;
69841;SDS011;57138;51.326;-0.068;2023-04-24T00:26:23;0.10;;;0.10;;
69841;SDS011;57138;51.326;-0.068;2023-04-24T00:28:49;0.10;;;0.10;;
69841;SDS011;57138;51.326;-0.068;2023-04-24T00:31:14;0.10;;;0.10;;
69841;SDS011;57138;51.326;-0.068;2023-04-24T00:33:40;0.20;;;0.20;;
69841;SDS011;57138;51.326;-0.068;2023-04-24T00:36:06;0.10;;;0.10;;
69841;SDS011;57138;51.326;-0.068;2023-04-24T00:38:31;0.10;;;0.10;;
69841;SDS011;57138;51.326;-0.068;2023-04-24T00:40:57;0.10;;;0.10;;
69841;SDS011;57138;51.326;-0.068;2023-04-24T00:43:23;0.10;;;0.10;;
69841;SDS011;57138;51.326;-0.068;2023-04-24T00:45:48;0.10;;;0.10;;
69841;SDS011;57138;51.326;-0.068;2023-04-24T00:48:14;0.10;;;0.10;;
69841;SDS011;57138;51.326;-0.068;2023-04-24T00:50:40;0.10;;;0.10;;
69841;SDS011;57138;51.326;-0.068;2023-04-24T00:53:05;0.20;;;0.20;;
69841;SDS011;57138;51.326;-0.068;2023-04-24T00:55:31;0.10;;;0.10;;
69841;SDS011;57138;51.326;-0.068;2023-04-24T00:57:57;0.10;;;0.10;;
69841;SDS011;57138;51.326;-0.068;2023-04-24T01:00:23;0.30;;;0.30;;
69841;SDS011;57138;51.326;-0.068;2023-04-24T01:02:49;0.10;;;0.10;;
69841;SDS011;57138;51.326;-0.068;2023-04-24T01:05:16;0.25;;;0.25;;
69841;SDS011;57138;51.326;-0.068;2023-04-24T01:07:43;0.10;;;0.10;;
69841;SDS011;57138;51.326;-0.068;2023-04-24T01:10:10;0.50;;;0.50;;
69841;SDS011;57138;51.326;-0.068;2023-04-24T01:12:37;0.60;;;0.60;;
69841;SDS011;57138;51.326;-0.068;2023-04-24T01:15:06;0.10;;;0.10;;
69841;SDS011;57138;51.326;-0.068;2023-04-24T01:17:33;0.73;;;0.57;;
69841;SDS011;57138;51.326;-0.068;2023-04-24T01:19:59;0.10;;;0.10;;
69841;SDS011;57138;51.326;-0.068;2023-04-24T01:22:25;0.10;;;0.10;;
69841;SDS011;57138;51.326;-0.068;2023-04-24T01:24:51;0.10;;;0.10;;
69841;SDS011;57138;51.326;-0.068;2023-04-24T01:27:18;0.10;;;0.10;;
69841;SDS011;57138;51.326;-0.068;2023-04-24T01:29:44;0.10;;;0.10;;
69841;SDS011;57138;51.326;-0.068;2023-04-24T01:32:09;0.10;;;0.10;;
69841;SDS011;57138;51.326;-0.068;2023-04-24T01:34:36;0.10;;;0.10;;
69841;SDS011;57138;51.326;-0.068;2023-04-24T01:37:02;0.10;;;0.10;;
69841;SDS011;57138;51.326;-0.068;2023-04-24T01:39:27;0.10;;;0.10;;
69841;SDS011;57138;51.326;-0.068;2023-04-24T01:41:53;0.25;;;0.25;;
69841;SDS011;57138;51.326;-0.068;2023-04-24T01:44:20;0.15;;;0.15;;
69841;SDS011;57138;51.326;-0.068;2023-04-24T01:46:46;0.52;;;0.30;;
69841;SDS011;57138;51.326;-0.068;2023-04-24T01:49:11;0.10;;;0.10;;
69841;SDS011;57138;51.326;-0.068;2023-04-24T01:51:37;0.10;;;0.10;;
69841;SDS011;57138;51.326;-0.068;2023-04-24T01:54:02;0.20;;;0.20;;
69841;SDS011;57138;51.326;-0.068;2023-04-24T01:56:28;0.20;;;0.20;;
69841;SDS011;57138;51.326;-0.068;2023-04-24T01:58:55;0.10;;;0.10;;
69841;SDS011;57138;51.326;-0.068;2023-04-24T02:01:23;0.10;;;0.10;;
69841;SDS011;57138;51.326;-0.068;2023-04-24T02:03:49;0.10;;;0.10;;
69841;SDS011;57138;51.326;-0.068;2023-04-24T02:06:14;0.10;;;0.10;;
69841;SDS011;57138;51.326;-0.068;2023-04-24T02:08:40;0.10;;;0.10;;
69841;SDS011;57138;51.326;-0.068;2023-04-24T02:11:05;0.10;;;0.10;;
69841;SDS011;57138;51.326;-0.068;2023-04-24T02:13:31;0.10;;;0.10;;
69841;SDS011;57138;51.326;-0.068;2023-04-24T02:15:58;0.20;;;0.20;;
69841;SDS011;57138;51.326;-0.068;2023-04-24T02:18:23;0.10;;;0.10;;
69841;SDS011;57138;51.326;-0.068;2023-04-24T02:20:49;0.35;;;0.35;;
69841;SDS011;57138;51.326;-0.068;2023-04-24T02:23:14;0.10;;;0.10;;
69841;SDS011;57138;51.326;-0.068;2023-04-24T02:25:40;0.10;;;0.10;;
69841;SDS011;57138;51.326;-0.068;2023-04-24T02:28:05;0.10;;;0.10;;
69841;SDS011;57138;51.326;-0.068;2023-04-24T02:30:31;0.10;;;0.10;;
69841;SDS011;57138;51.326;-0.068;2023-04-24T02:32:56;0.30;;;0.30;;
69841;SDS011;57138;51.326;-0.068;2023-04-24T02:35:22;2.60;;;0.85;;
69841;SDS011;57138;51.326;-0.068;2023-04-24T02:37:48;0.10;;;0.10;;
69841;SDS011;57138;51.326;-0.068;2023-04-24T02:40:13;0.10;;;0.10;;
69841;SDS011;57138;51.326;-0.068;2023-04-24T02:42:39;0.10;;;0.10;;
69841;SDS011;57138;51.326;-0.068;2023-04-24T02:45:04;0.10;;;0.10;;
69841;SDS011;57138;51.326;-0.068;2023-04-24T02:47:30;0.40;;;0.40;;
69841;SDS011;57138;51.326;-0.068;2023-04-24T02:49:56;1.60;;;0.35;;
69841;SDS011;57138;51.326;-0.068;2023-04-24T02:52:23;0.20;;;0.20;;
69841;SDS011;57138;51.326;-0.068;2023-04-24T02:54:48;0.10;;;0.10;;
69841;SDS011;57138;51.326;-0.068;2023-04-24T02:57:14;0.93;;;0.90;;
69841;SDS011;57138;51.326;-0.068;2023-04-24T02:59:40;0.10;;;0.10;;
69841;SDS011;57138;51.326;-0.068;2023-04-24T03:02:05;0.10;;;0.10;;
69841;SDS011;57138;51.326;-0.068;2023-04-24T03:04:30;0.30;;;0.30;;
69841;SDS011;57138;51.326;-0.068;2023-04-24T03:06:57;0.40;;;0.40;;
69841;SDS011;57138;51.326;-0.068;2023-04-24T03:09:22;0.10;;;0.10;;
69841;SDS011;57138;51.326;-0.068;2023-04-24T03:11:48;0.10;;;0.10;;
69841;SDS011;57138;51.326;-0.068;2023-04-24T03:14:14;0.10;;;0.10;;
69841;SDS011;57138;51.326;-0.068;2023-04-24T03:16:40;0.10;;;0.10;;
69841;SDS011;57138;51.326;-0.068;2023-04-24T03:19:05;0.10;;;0.10;;
69841;SDS011;57138;51.326;-0.068;2023-04-24T03:21:31;0.10;;;0.10;;
69841;SDS011;57138;51.326;-0.068;2023-04-24T03:23:56;0.10;;;0.10;;
69841;SDS011;57138;51.326;-0.068;2023-04-24T03:26:21;0.10;;;0.10;;
69841;SDS011;57138;51.326;-0.068;2023-04-24T03:28:47;0.10;;;0.10;;
69841;SDS011;57138;51.326;-0.068;2023-04-24T03:31:12;0.10;;;0.10;;
69841;SDS011;57138;51.326;-0.068;2023-04-24T03:33:37;0.10;;;0.10;;
69841;SDS011;57138;51.326;-0.068;2023-04-24T03:36:03;0.10;;;0.10;;
69841;SDS011;57138;51.326;-0.068;2023-04-24T03:38:30;0.40;;;0.40;;
69841;SDS011;57138;51.326;-0.068;2023-04-24T03:40:55;0.10;;;0.10;;
69841;SDS011;57138;51.326;-0.068;2023-04-24T03:43:20;0.20;;;0.20;;
69841;SDS011;57138;51.326;-0.068;2023-04-24T03:45:46;0.20;;;0.20;;
69841;SDS011;57138;51.326;-0.068;2023-04-24T03:48:11;0.63;;;0.63;;
69841;SDS011;57138;51.326;-0.068;2023-04-24T03:50:37;1.27;;;0.35;;
69841;SDS011;57138;51.326;-0.068;2023-04-24T03:53:02;0.10;;;0.10;;
69841;SDS011;57138;51.326;-0.068;2023-04-24T03:55:28;0.22;;;0.22;;
69841;SDS011;57138;51.326;-0.068;2023-04-24T03:58:00;0.10;;;0.10;;
69841;SDS011;57138;51.326;-0.068;2023-04-24T04:00:26;0.10;;;0.10;;
69841;SDS011;57138;51.326;-0.068;2023-04-24T04:02:53;6.50;;;0.65;;
69841;SDS011;57138;51.326;-0.068;2023-04-24T04:05:19;0.40;;;0.40;;
69841;SDS011;57138;51.326;-0.068;2023-04-24T04:07:45;0.10;;;0.10;;
69841;SDS011;57138;51.326;-0.068;2023-04-24T04:10:11;0.75;;;0.75;;
69841;SDS011;57138;51.326;-0.068;2023-04-24T04:12:36;0.20;;;0.20;;
69841;SDS011;57138;51.326;-0.068;2023-04-24T04:15:02;0.10;;;0.10;;
69841;SDS011;57138;51.326;-0.068;2023-04-24T04:17:27;0.10;;;0.10;;
69841;SDS011;57138;51.326;-0.068;2023-04-24T04:19:53;0.10;;;0.10;;
69841;SDS011;57138;51.326;-0.068;2023-04-24T04:22:18;0.22;;;0.22;;
69841;SDS011;57138;51.326;-0.068;2023-04-24T04:24:44;0.10;;;0.10;;
69841;SDS011;57138;51.326;-0.068;2023-04-24T04:27:09;0.10;;;0.10;;
69841;SDS011;57138;51.326;-0.068;2023-04-24T04:29:35;0.10;;;0.10;;
69841;SDS011;57138;51.326;-0.068;2023-04-24T04:32:01;0.10;;;0.10;;
69841;SDS011;57138;51.326;-0.068;2023-04-24T04:34:27;0.10;;;0.10;;
69841;SDS011;57138;51.326;-0.068;2023-04-24T04:36:53;0.10;;;0.10;;
69841;SDS011;57138;51.326;-0.068;2023-04-24T04:39:18;0.10;;;0.10;;
69841;SDS011;57138;51.326;-0.068;2023-04-24T04:41:44;0.10;;;0.10;;
69841;SDS011;57138;51.326;-0.068;2023-04-24T04:44:13;1.17;;;1.13;;
69841;SDS011;57138;51.326;-0.068;2023-04-24T04:46:39;0.10;;;0.10;;
69841;SDS011;57138;51.326;-0.068;2023-04-24T04:49:06;0.10;;;0.10;;
69841;SDS011;57138;51.326;-0.068;2023-04-24T04:51:33;0.13;;;0.13;;
69841;SDS011;57138;51.326;-0.068;2023-04-24T04:53:59;0.20;;;0.20;;
69841;SDS011;57138;51.326;-0.068;2023-04-24T04:56:25;0.10;;;0.10;;
69841;SDS011;57138;51.326;-0.068;2023-04-24T04:58:50;1.08;;;1.02;;
69841;SDS011;57138;51.326;-0.068;2023-04-24T05:01:16;0.35;;;0.35;;
69841;SDS011;57138;51.326;-0.068;2023-04-24T05:03:42;0.88;;;0.75;;
69841;SDS011;57138;51.326;-0.068;2023-04-24T05:06:07;0.10;;;0.10;;
69841;SDS011;57138;51.326;-0.068;2023-04-24T05:08:33;0.30;;;0.30;;
69841;SDS011;57138;51.326;-0.068;2023-04-24T05:10:58;0.28;;;0.28;;
69841;SDS011;57138;51.326;-0.068;2023-04-24T05:13:24;0.10;;;0.10;;
69841;SDS011;57138;51.326;-0.068;2023-04-24T05:15:49;0.10;;;0.10;;
69841;SDS011;57138;51.326;-0.068;2023-04-24T05:18:15;0.10;;;0.10;;
69841;SDS011;57138;51.326;-0.068;2023-04-24T05:20:41;0.10;;;0.10;;
69841;SDS011;57138;51.326;-0.068;2023-04-24T05:23:08;0.10;;;0.10;;
69841;SDS011;57138;51.326;-0.068;2023-04-24T05:25:34;0.10;;;0.10;;
69841;SDS011;57138;51.326;-0.068;2023-04-24T05:28:01;0.10;;;0.10;;
69841;SDS011;57138;51.326;-0.068;2023-04-24T05:30:27;0.20;;;0.20;;
69841;SDS011;57138;51.326;-0.068;2023-04-24T05:32:52;0.20;;;0.20;;
69841;SDS011;57138;51.326;-0.068;2023-04-24T05:35:18;0.10;;;0.10;;
69841;SDS011;57138;51.326;-0.068;2023-04-24T05:37:43;0.10;;;0.10;;
69841;SDS011;57138;51.326;-0.068;2023-04-24T05:40:09;0.10;;;0.10;;
69841;SDS011;57138;51.326;-0.068;2023-04-24T05:42:35;0.10;;;0.10;;
69841;SDS011;57138;51.326;-0.068;2023-04-24T05:45:00;0.10;;;0.10;;
69841;SDS011;57138;51.326;-0.068;2023-04-24T05:47:26;0.10;;;0.10;;
69841;SDS011;57138;51.326;-0.068;2023-04-24T05:49:52;0.10;;;0.10;;
69841;SDS011;57138;51.326;-0.068;2023-04-24T05:52:18;0.10;;;0.10;;
69841;SDS011;57138;51.326;-0.068;2023-04-24T05:54:44;0.10;;;0.10;;
69841;SDS011;57138;51.326;-0.068;2023-04-24T05:57:09;0.10;;;0.10;;
69841;SDS011;57138;51.326;-0.068;2023-04-24T05:59:36;0.10;;;0.10;;
69841;SDS011;57138;51.326;-0.068;2023-04-24T06:02:03;0.10;;;0.10;;
69841;SDS011;57138;51.326;-0.068;2023-04-24T06:04:29;0.10;;;0.10;;
69841;SDS011;57138;51.326;-0.068;2023-04-24T06:06:55;0.10;;;0.10;;
69841;SDS011;57138;51.326;-0.068;2023-04-24T06:09:24;0.10;;;0.10;;
69841;SDS011;57138;51.326;-0.068;2023-04-24T06:11:51;0.10;;;0.10;;
69841;SDS011;57138;51.326;-0.068;2023-04-24T06:14:18;0.10;;;0.10;;
69841;SDS011;57138;51.326;-0.068;2023-04-24T06:16:45;0.10;;;0.10;;
69841;SDS011;57138;51.326;-0.068;2023-04-24T06:19:10;1.10;;;0.55;;
69841;SDS011;57138;51.326;-0.068;2023-04-24T06:21:37;0.10;;;0.10;;
69841;SDS011;57138;51.326;-0.068;2023-04-24T06:24:02;0.10;;;0.10;;
69841;SDS011;57138;51.326;-0.068;2023-04-24T06:26:29;0.10;;;0.10;;
69841;SDS011;57138;51.326;-0.068;2023-04-24T06:28:55;0.15;;;0.15;;
69841;SDS011;57138;51.326;-0.068;2023-04-24T06:31:20;0.10;;;0.10;;
69841;SDS011;57138;51.326;-0.068;2023-04-24T06:33:46;0.10;;;0.10;;
69841;SDS011;57138;51.326;-0.068;2023-04-24T06:36:11;0.10;;;0.10;;
69841;SDS011;57138;51.326;-0.068;2023-04-24T06:38:37;0.40;;;0.40;;
69841;SDS011;57138;51.326;-0.068;2023-04-24T06:41:03;0.10;;;0.10;;
69841;SDS011;57138;51.326;-0.068;2023-04-24T06:43:30;0.10;;;0.10;;
69841;SDS011;57138;51.326;-0.068;2023-04-24T06:45:56;0.10;;;0.10;;
69841;SDS011;57138;51.326;-0.068;2023-04-24T06:48:23;0.20;;;0.20;;
69841;SDS011;57138;51.326;-0.068;2023-04-24T06:50:50;0.13;;;0.13;;
69841;SDS011;57138;51.326;-0.068;2023-04-24T06:53:15;0.73;;;0.73;;
69841;SDS011;57138;51.326;-0.068;2023-04-24T06:55:41;0.75;;;0.75;;
69841;SDS011;57138;51.326;-0.068;2023-04-24T06:58:08;0.10;;;0.10;;
69841;SDS011;57138;51.326;-0.068;2023-04-24T07:00:33;0.10;;;0.10;;
69841;SDS011;57138;51.326;-0.068;2023-04-24T07:02:59;0.10;;;0.10;;
69841;SDS011;57138;51.326;-0.068;2023-04-24T07:05:25;0.10;;;0.10;;
69841;SDS011;57138;51.326;-0.068;2023-04-24T07:07:50;0.22;;;0.22;;
69841;SDS011;57138;51.326;-0.068;2023-04-24T07:10:16;0.10;;;0.10;;
69841;SDS011;57138;51.326;-0.068;2023-04-24T07:12:41;0.10;;;0.10;;
69841;SDS011;57138;51.326;-0.068;2023-04-24T07:15:10;0.25;;;0.25;;
69841;SDS011;57138;51.326;-0.068;2023-04-24T07:17:35;0.10;;;0.10;;
69841;SDS011;57138;51.326;-0.068;2023-04-24T07:20:03;0.10;;;0.10;;
69841;SDS011;57138;51.326;-0.068;2023-04-24T07:22:29;0.10;;;0.10;;
69841;SDS011;57138;51.326;-0.068;2023-04-24T07:24:55;0.20;;;0.20;;
69841;SDS011;57138;51.326;-0.068;2023-04-24T07:27:20;0.10;;;0.10;;
69841;SDS011;57138;51.326;-0.068;2023-04-24T07:29:46;0.10;;;0.10;;
69841;SDS011;57138;51.326;-0.068;2023-04-24T07:32:11;0.10;;;0.10;;
69841;SDS011;57138;51.326;-0.068;2023-04-24T07:34:37;0.10;;;0.10;;
69841;SDS011;57138;51.326;-0.068;2023-04-24T07:37:02;0.10;;;0.10;;
69841;SDS011;57138;51.326;-0.068;2023-04-24T07:39:28;0.10;;;0.10;;
69841;SDS011;57138;51.326;-0.068;2023-04-24T07:41:54;0.10;;;0.10;;
69841;SDS011;57138;51.326;-0.068;2023-04-24T07:44:20;0.32;;;0.32;;
69841;SDS011;57138;51.326;-0.068;2023-04-24T07:46:46;0.10;;;0.10;;
69841;SDS011;57138;51.326;-0.068;2023-04-24T07:49:12;0.10;;;0.10;;
69841;SDS011;57138;51.326;-0.068;2023-04-24T07:51:37;0.10;;;0.10;;
69841;SDS011;57138;51.326;-0.068;2023-04-24T07:54:04;0.10;;;0.10;;
69841;SDS011;57138;51.326;-0.068;2023-04-24T07:56:33;0.10;;;0.10;;
69841;SDS011;57138;51.326;-0.068;2023-04-24T07:58:58;0.15;;;0.15;;
69841;SDS011;57138;51.326;-0.068;2023-04-24T08:01:24;0.20;;;0.20;;
69841;SDS011;57138;51.326;-0.068;2023-04-24T08:03:50;0.30;;;0.30;;
69841;SDS011;57138;51.326;-0.068;2023-04-24T08:06:16;0.57;;;0.57;;
69841;SDS011;57138;51.326;-0.068;2023-04-24T08:08:41;0.10;;;0.10;;
69841;SDS011;57138;51.326;-0.068;2023-04-24T08:11:07;0.20;;;0.20;;
69841;SDS011;57138;51.326;-0.068;2023-04-24T08:13:33;0.10;;;0.10;;
69841;SDS011;57138;51.326;-0.068;2023-04-24T08:15:58;0.10;;;0.10;;
69841;SDS011;57138;51.326;-0.068;2023-04-24T08:18:24;0.28;;;0.28;;
69841;SDS011;57138;51.326;-0.068;2023-04-24T08:20:50;0.10;;;0.10;;
69841;SDS011;57138;51.326;-0.068;2023-04-24T08:23:15;0.10;;;0.10;;
69841;SDS011;57138;51.326;-0.068;2023-04-24T08:25:41;0.10;;;0.10;;
69841;SDS011;57138;51.326;-0.068;2023-04-24T08:28:06;0.10;;;0.10;;
69841;SDS011;57138;51.326;-0.068;2023-04-24T08:30:35;0.10;;;0.10;;
69841;SDS011;57138;51.326;-0.068;2023-04-24T08:33:00;0.10;;;0.10;;
69841;SDS011;57138;51.326;-0.068;2023-04-24T08:35:26;0.10;;;0.10;;
69841;SDS011;57138;51.326;-0.068;2023-04-24T08:37:52;0.10;;;0.10;;
69841;SDS011;57138;51.326;-0.068;2023-04-24T08:40:22;0.20;;;0.20;;
69841;SDS011;57138;51.326;-0.068;2023-04-24T08:42:53;0.10;;;0.10;;
69841;SDS011;57138;51.326;-0.068;2023-04-24T08:45:21;0.20;;;0.20;;
69841;SDS011;57138;51.326;-0.068;2023-04-24T08:47:47;0.10;;;0.10;;
69841;SDS011;57138;51.326;-0.068;2023-04-24T08:50:14;0.10;;;0.10;;
69841;SDS011;57138;51.326;-0.068;2023-04-24T08:52:40;0.10;;;0.10;;
69841;SDS011;57138;51.326;-0.068;2023-04-24T08:55:07;0.10;;;0.10;;
69841;SDS011;57138;51.326;-0.068;2023-04-24T08:57:34;0.20;;;0.20;;
69841;SDS011;57138;51.326;-0.068;2023-04-24T09:00:01;0.75;;;0.75;;
69841;SDS011;57138;51.326;-0.068;2023-04-24T09:02:27;0.20;;;0.20;;
69841;SDS011;57138;51.326;-0.068;2023-04-24T09:04:52;0.10;;;0.10;;
69841;SDS011;57138;51.326;-0.068;2023-04-24T09:07:19;0.10;;;0.10;;
69841;SDS011;57138;51.326;-0.068;2023-04-24T09:09:47;0.20;;;0.20;;
69841;SDS011;57138;51.326;-0.068;2023-04-24T09:12:14;0.10;;;0.10;;
69841;SDS011;57138;51.326;-0.068;2023-04-24T09:14:40;1.35;;;1.27;;
69841;SDS011;57138;51.326;-0.068;2023-04-24T09:17:09;0.10;;;0.10;;
69841;SDS011;57138;51.326;-0.068;2023-04-24T09:19:36;0.10;;;0.10;;
69841;SDS011;57138;51.326;-0.068;2023-04-24T09:22:05;0.20;;;0.20;;
69841;SDS011;57138;51.326;-0.068;2023-04-24T09:24:33;0.10;;;0.10;;
69841;SDS011;57138;51.326;-0.068;2023-04-24T09:26:59;0.10;;;0.10;;
69841;SDS011;57138;51.326;-0.068;2023-04-24T09:29:26;0.10;;;0.10;;
69841;SDS011;57138;51.326;-0.068;2023-04-24T09:31:52;0.10;;;0.10;;
69841;SDS011;57138;51.326;-0.068;2023-04-24T09:34:21;0.20;;;0.20;;
69841;SDS011;57138;51.326;-0.068;2023-04-24T09:36:49;0.10;;;0.10;;
69841;SDS011;57138;51.326;-0.068;2023-04-24T09:39:15;0.10;;;0.10;;
69841;SDS011;57138;51.326;-0.068;2023-04-24T09:41:45;0.20;;;0.20;;
69841;SDS011;57138;51.326;-0.068;2023-04-24T09:44:24;0.10;;;0.10;;
69841;SDS011;57138;51.326;-0.068;2023-04-24T09:46:53;0.10;;;0.10;;
69841;SDS011;57138;51.326;-0.068;2023-04-24T09:49:29;0.10;;;0.10;;
69841;SDS011;57138;51.326;-0.068;2023-04-24T09:52:06;0.10;;;0.10;;
69841;SDS011;57138;51.326;-0.068;2023-04-24T09:54:33;0.30;;;0.30;;
69841;SDS011;57138;51.326;-0.068;2023-04-24T09:57:01;0.10;;;0.10;;
69841;SDS011;57138;51.326;-0.068;2023-04-24T09:59:27;0.10;;;0.10;;
69841;SDS011;57138;51.326;-0.068;2023-04-24T10:01:54;0.10;;;0.10;;
69841;SDS011;57138;51.326;-0.068;2023-04-24T10:04:20;0.50;;;0.50;;
69841;SDS011;57138;51.326;-0.068;2023-04-24T10:06:49;0.25;;;0.25;;
69841;SDS011;57138;51.326;-0.068;2023-04-24T10:09:16;10.85;;;4.68;;
69841;SDS011;57138;51.326;-0.068;2023-04-24T10:11:46;13.10;;;4.95;;
69841;SDS011;57138;51.326;-0.068;2023-04-24T10:14:14;8.48;;;4.10;;
69841;SDS011;57138;51.326;-0.068;2023-04-24T10:16:45;10.93;;;4.50;;
69841;SDS011;57138;51.326;-0.068;2023-04-24T10:19:13;8.52;;;4.30;;
69841;SDS011;57138;51.326;-0.068;2023-04-24T10:21:40;13.95;;;5.22;;
69841;SDS011;57138;51.326;-0.068;2023-04-24T10:24:08;9.30;;;4.20;;
69841;SDS011;57138;51.326;-0.068;2023-04-24T10:26:35;12.18;;;4.57;;
69841;SDS011;57138;51.326;-0.068;2023-04-24T10:29:00;9.38;;;4.20;;
69841;SDS011;57138;51.326;-0.068;2023-04-24T10:31:27;12.75;;;5.13;;
69841;SDS011;57138;51.326;-0.068;2023-04-24T10:33:56;18.30;;;5.43;;
69841;SDS011;57138;51.326;-0.068;2023-04-24T10:36:25;18.48;;;4.95;;
69841;SDS011;57138;51.326;-0.068;2023-04-24T10:38:54;13.20;;;4.93;;
69841;SDS011;57138;51.326;-0.068;2023-04-24T10:41:21;10.63;;;5.03;;
69841;SDS011;57138;51.326;-0.068;2023-04-24T10:44:05;15.23;;;4.97;;
69841;SDS011;57138;51.326;-0.068;2023-04-24T10:46:32;11.07;;;5.88;;
69841;SDS011;57138;51.326;-0.068;2023-04-24T10:48:57;14.60;;;6.22;;
69841;SDS011;57138;51.326;-0.068;2023-04-24T10:51:23;14.43;;;4.63;;
69841;SDS011;57138;51.326;-0.068;2023-04-24T10:54:22;10.75;;;5.65;;
69841;SDS011;57138;51.326;-0.068;2023-04-24T10:59:47;11.30;;;5.00;;
69841;SDS011;57138;51.326;-0.068;2023-04-24T11:02:14;10.85;;;4.82;;
69841;SDS011;57138;51.326;-0.068;2023-04-24T11:04:40;10.38;;;4.68;;
69841;SDS011;57138;51.326;-0.068;2023-04-24T11:07:08;9.63;;;4.38;;
69841;SDS011;57138;51.326;-0.068;2023-04-24T11:09:34;11.32;;;4.90;;
69841;SDS011;57138;51.326;-0.068;2023-04-24T11:17:34;12.10;;;4.32;;
69841;SDS011;57138;51.326;-0.068;2023-04-24T11:20:09;8.23;;;4.30;;
69841;SDS011;57138;51.326;-0.068;2023-04-24T11:22:37;9.88;;;4.50;;
69841;SDS011;57138;51.326;-0.068;2023-04-24T11:25:05;8.93;;;4.57;;
69841;SDS011;57138;51.326;-0.068;2023-04-24T11:27:41;10.95;;;4.80;;
69841;SDS011;57138;51.326;-0.068;2023-04-24T11:30:08;11.68;;;4.97;;
69841;SDS011;57138;51.326;-0.068;2023-04-24T11:32:39;14.02;;;4.63;;
69841;SDS011;57138;51.326;-0.068;2023-04-24T11:35:19;11.35;;;5.75;;
69841;SDS011;57138;51.326;-0.068;2023-04-24T11:37:51;11.48;;;4.47;;
69841;SDS011;57138;51.326;-0.068;2023-04-24T11:40:19;15.70;;;6.13;;
69841;SDS011;57138;51.326;-0.068;2023-04-24T11:42:46;10.98;;;5.10;;
69841;SDS011;57138;51.326;-0.068;2023-04-24T11:45:14;12.43;;;5.13;;
69841;SDS011;57138;51.326;-0.068;2023-04-24T11:47:42;11.30;;;4.65;;
69841;SDS011;57138;51.326;-0.068;2023-04-24T11:50:09;12.38;;;5.55;;
69841;SDS011;57138;51.326;-0.068;2023-04-24T11:52:39;14.55;;;4.82;;
69841;SDS011;57138;51.326;-0.068;2023-04-24T11:55:28;10.35;;;5.38;;
69841;SDS011;57138;51.326;-0.068;2023-04-24T11:57:57;12.00;;;4.93;;
69841;SDS011;57138;51.326;-0.068;2023-04-24T12:00:28;10.40;;;4.03;;
69841;SDS011;57138;51.326;-0.068;2023-04-24T12:03:08;10.57;;;4.10;;
69841;SDS011;57138;51.326;-0.068;2023-04-24T12:05:36;8.75;;;4.10;;
69841;SDS011;57138;51.326;-0.068;2023-04-24T12:08:01;11.30;;;5.15;;
69841;SDS011;57138;51.326;-0.068;2023-04-24T12:10:28;11.93;;;4.65;;
69841;SDS011;57138;51.326;-0.068;2023-04-24T12:12:55;10.05;;;5.30;;
69841;SDS011;57138;51.326;-0.068;2023-04-24T12:15:22;11.75;;;5.63;;
69841;SDS011;57138;51.326;-0.068;2023-04-24T12:17:52;10.52;;;4.70;;
69841;SDS011;57138;51.326;-0.068;2023-04-24T12:20:27;13.25;;;5.60;;
69841;SDS011;57138;51.326;-0.068;2023-04-24T12:22:57;16.08;;;5.47;;
69841;SDS011;57138;51.326;-0.068;2023-04-24T12:25:25;15.93;;;6.85;;
69841;SDS011;57138;51.326;-0.068;2023-04-24T12:28:15;13.73;;;5.50;;
69841;SDS011;57138;51.326;-0.068;2023-04-24T12:30:40;9.98;;;6.13;;
69841;SDS011;57138;51.326;-0.068;2023-04-24T12:33:09;14.25;;;6.07;;
69841;SDS011;57138;51.326;-0.068;2023-04-24T12:35:34;17.50;;;7.03;;
69841;SDS011;57138;51.326;-0.068;2023-04-24T12:38:07;13.70;;;6.03;;
69841;SDS011;57138;51.326;-0.068;2023-04-24T12:40:34;14.38;;;4.82;;
69841;SDS011;57138;51.326;-0.068;2023-04-24T12:42:59;11.25;;;5.60;;
69841;SDS011;57138;51.326;-0.068;2023-04-24T12:45:25;10.60;;;5.50;;
69841;SDS011;57138;51.326;-0.068;2023-04-24T12:47:53;12.32;;;5.25;;
69841;SDS011;57138;51.326;-0.068;2023-04-24T12:50:18;14.23;;;6.25;;
69841;SDS011;57138;51.326;-0.068;2023-04-24T12:52:44;10.93;;;5.10;;
69841;SDS011;57138;51.326;-0.068;2023-04-24T12:55:10;10.93;;;4.90;;
69841;SDS011;57138;51.326;-0.068;2023-04-24T12:57:37;11.73;;;5.68;;
69841;SDS011;57138;51.326;-0.068;2023-04-24T13:00:05;12.02;;;4.88;;
69841;SDS011;57138;51.326;-0.068;2023-04-24T13:02:32;8.75;;;4.60;;
69841;SDS011;57138;51.326;-0.068;2023-04-24T13:04:58;11.75;;;4.97;;
69841;SDS011;57138;51.326;-0.068;2023-04-24T13:07:25;11.68;;;5.45;;
69841;SDS011;57138;51.326;-0.068;2023-04-24T13:09:51;11.43;;;5.05;;
69841;SDS011;57138;51.326;-0.068;2023-04-24T13:12:18;8.18;;;4.72;;
69841;SDS011;57138;51.326;-0.068;2023-04-24T13:14:45;15.80;;;6.70;;
69841;SDS011;57138;51.326;-0.068;2023-04-24T13:17:11;11.38;;;5.93;;
69841;SDS011;57138;51.326;-0.068;2023-04-24T13:19:37;16.30;;;5.10;;
69841;SDS011;57138;51.326;-0.068;2023-04-24T13:22:04;10.07;;;4.95;;
69841;SDS011;57138;51.326;-0.068;2023-04-24T13:24:31;12.48;;;5.38;;
69841;SDS011;57138;51.326;-0.068;2023-04-24T13:26:59;10.27;;;4.95;;
69841;SDS011;57138;51.326;-0.068;2023-04-24T13:29:25;13.50;;;6.32;;
69841;SDS011;57138;51.326;-0.068;2023-04-24T13:31:52;10.10;;;5.53;;
69841;SDS011;57138;51.326;-0.068;2023-04-24T13:34:24;11.43;;;5.65;;
69841;SDS011;57138;51.326;-0.068;2023-04-24T13:36:51;15.07;;;5.80;;
69841;SDS011;57138;51.326;-0.068;2023-04-24T13:39:21;11.20;;;5.85;;
69841;SDS011;57138;51.326;-0.068;2023-04-24T13:41:48;11.50;;;4.90;;
69841;SDS011;57138;51.326;-0.068;2023-04-24T13:44:14;15.43;;;6.72;;
69841;SDS011;57138;51.326;-0.068;2023-04-24T13:46:41;15.10;;;5.72;;
69841;SDS011;57138;51.326;-0.068;2023-04-24T13:49:09;11.18;;;5.70;;
69841;SDS011;57138;51.326;-0.068;2023-04-24T13:51:35;13.70;;;6.03;;
69841;SDS011;57138;51.326;-0.068;2023-04-24T13:54:00;12.20;;;6.18;;
69841;SDS011;57138;51.326;-0.068;2023-04-24T13:56:26;10.27;;;6.43;;
69841;SDS011;57138;51.326;-0.068;2023-04-24T13:58:55;9.68;;;5.72;;
69841;SDS011;57138;51.326;-0.068;2023-04-24T14:01:21;16.75;;;7.30;;
69841;SDS011;57138;51.326;-0.068;2023-04-24T14:03:51;12.55;;;5.82;;
69841;SDS011;57138;51.326;-0.068;2023-04-24T14:06:18;11.63;;;6.65;;
69841;SDS011;57138;51.326;-0.068;2023-04-24T14:08:43;13.35;;;5.47;;
69841;SDS011;57138;51.326;-0.068;2023-04-24T14:11:09;11.18;;;4.90;;
69841;SDS011;57138;51.326;-0.068;2023-04-24T14:13:35;17.55;;;6.47;;
69841;SDS011;57138;51.326;-0.068;2023-04-24T14:16:02;13.95;;;6.65;;
69841;SDS011;57138;51.326;-0.068;2023-04-24T14:18:29;14.23;;;6.00;;
69841;SDS011;57138;51.326;-0.068;2023-04-24T14:20:55;10.38;;;5.57;;
69841;SDS011;57138;51.326;-0.068;2023-04-24T14:23:20;14.38;;;5.18;;
69841;SDS011;57138;51.326;-0.068;2023-04-24T14:25:46;13.20;;;5.97;;
69841;SDS011;57138;51.326;-0.068;2023-04-24T14:28:15;14.25;;;6.05;;
69841;SDS011;57138;51.326;-0.068;2023-04-24T14:30:41;11.20;;;5.47;;
69841;SDS011;57138;51.326;-0.068;2023-04-24T14:33:06;11.05;;;5.97;;
69841;SDS011;57138;51.326;-0.068;2023-04-24T14:35:32;11.75;;;5.80;;
69841;SDS011;57138;51.326;-0.068;2023-04-24T14:37:59;12.05;;;5.45;;